• Join FlightAware (Why Join?)
  • Login
  • US Flag 
07:01AM EDT


 

Airport Tracker/Info


-or-


 

Live Flight TrackerFlight Track Log ✈ N865JM ✈ 31-Jan-2014 ✈ KCRE - KRSW

Flight Track Log - Related Links

Times and Time Zones

All times are in EST time to prevent confusion due to time zone crossing. See the N865JM flight status page for this flight to view local times or setup timezone preferences in your user account.

Time Position Orientation Groundspeed Altitude Reporting Facility
EST Latitude Longitude Course Direction KTS MPH feet Rate Location/Type
02:46PM 33.6639 -78.9350 231° Southwest 272 313 10,400  Level Jacksonville Center
02:47PM 33.6097 -79.0122 230° Southwest 291 335 12,400 1,980 Climbing Jacksonville Center
02:48PM 33.5478 -79.0997 230° Southwest 323 372 14,400 1,980 Climbing Jacksonville Center
02:49PM 33.5095 -79.1358 231° Southwest  Level FlightAware Approximate
02:49PM 33.4858 -79.1919 231° Southwest 347 399 16,400  Level Jacksonville Center
02:50PM 33.4526 -79.2212 231° Southwest  Level FlightAware Approximate
02:50PM 33.4178 -79.2919 231° Southwest 372 428 18,500  Level Jacksonville Center
02:51PM 33.3952 -79.3060 231° Southwest  Level FlightAware Approximate
02:51PM 33.3475 -79.3917 230° Southwest 385 443 20,600  Level Jacksonville Center
02:52PM 33.2772 -79.4914 230° Southwest 391 450 22,600 1,860 Climbing Jacksonville Center
02:53PM 33.2069 -79.5933 231° Southwest 391 450 24,400 1,620 Climbing Jacksonville Center
02:54PM 33.1364 -79.6950 230° Southwest 396 456 25,900 1,380 Climbing Jacksonville Center
02:55PM 33.0639 -79.7944 229° Southwest 402 463 27,200 1,320 Climbing Jacksonville Center
02:56PM 32.9911 -79.8958 229° Southwest 402 463 28,600 1,320 Climbing Jacksonville Center
02:57PM 32.9117 -79.9853 223° Southwest 402 463 29,900 1,200 Climbing Jacksonville Center
02:58PM 32.8219 -80.0697 218° Southwest 402 463 31,000 900 Climbing Jacksonville Center
02:59PM 32.7319 -80.1539 218° Southwest 413 475 31,700 600 Climbing Jacksonville Center
03:00PM 32.6397 -80.2431 219° Southwest 421 484 32,200 480 Climbing Jacksonville Center
03:01PM 32.5456 -80.3319 219° Southwest 433 498 32,700 420 Climbing Jacksonville Center
03:02PM 32.4514 -80.4208 219° Southwest 433 498 33,100 480 Climbing Jacksonville Center
03:03PM 32.3550 -80.5072 217° Southwest 433 498 33,700 420 Climbing Jacksonville Center
03:04PM 32.2625 -80.5956 219° Southwest 433 498 34,000 120 Climbing Jacksonville Center
03:05PM 32.1681 -80.6814 218° Southwest 433 498 34,000  Level Jacksonville Center
03:06PM 32.0778 -80.7644 218° Southwest 427 491 34,000  Level Jacksonville Center
03:07PM 31.9708 -80.8622 218° Southwest 434 499 34,000  Level Jacksonville Center
03:08PM 31.8781 -80.9500 219° Southwest 434 499 34,000  Level Jacksonville Center
03:09PM 31.7917 -81.0275 217° Southwest 434 499 34,000  Level Jacksonville Center
03:10PM 31.6864 -81.1225 218° Southwest 439 505 34,000  Level Jacksonville Center
03:11PM 31.6000 -81.2022 218° Southwest 444 511 34,000  Level Jacksonville Center
03:12PM 31.4967 -81.2967 218° Southwest 444 511 34,000  Level Jacksonville Center
03:13PM 31.4017 -81.3833 218° Southwest 444 511 34,000  Level Jacksonville Center
03:14PM 31.3128 -81.4628 217° Southwest 444 511 34,000  Level Jacksonville Center
03:15PM 31.2178 -81.5492 218° Southwest 444 511 34,000  Level Jacksonville Center
03:16PM 31.1225 -81.6356 218° Southwest 444 511 34,000 120 Level Jacksonville Center
03:17PM 31.0253 -81.7167 216° Southwest 444 511 34,300 360 Climbing Jacksonville Center
03:18PM 30.9150 -81.7739 204° Southwest 439 505 34,800 480 Climbing Jacksonville Center
03:19PM 30.8028 -81.8283 203° Southwest 434 499 35,300 480 Climbing Jacksonville Center
03:20PM 30.6947 -81.8828 203° Southwest 434 499 35,800 300 Climbing Jacksonville Center
03:21PM 30.5867 -81.9369 203° Southwest 434 499 35,900  Climbing Jacksonville Center
03:22PM 30.4783 -81.9864 201° Southwest 429 494 35,900  Level Jacksonville Center
03:23PM 30.3681 -82.0378 202° Southwest 429 494 36,000  Climbing Jacksonville Center
03:24PM 30.2597 -82.0917 203° Southwest 429 494 36,000  Level Jacksonville Center
03:25PM 30.1411 -82.1167 190° South 429 494 36,000 -60 Level Jacksonville Center
03:26PM 30.0053 -82.0986 173° South 429 494 35,900 -300 Descending Jacksonville Center
03:27PM 29.8819 -82.0758 171° South 441 507 35,400 -480 Descending Jacksonville Center
03:28PM 29.7606 -82.0481 169° South 446 513 35,000 -240 Descending Jacksonville Center
03:29PM 29.6372 -82.0253 171° South 446 513 35,000  Level Jacksonville Center
03:30PM 29.5181 -82.0025 171° South 446 513 35,000  Level Jacksonville Center
03:31PM 29.3969 -81.9772 170° South 446 513 35,000  Level Jacksonville Center
03:32PM 29.2736 -81.9522 170° South 446 513 35,000  Level Jacksonville Center
03:33PM 29.1628 -81.9247 168° South 451 519 35,000 -420 Level Jacksonville Center
03:35PM 28.9181 -81.8758 170° South 447 514 33,800 -1,080 Descending Miami Center
03:36PM 28.8142 -81.8592 172° South 436 502 31,900 -2,100 Descending Miami Center
03:37PM 28.6983 -81.8375 171° South 424 488 29,700 -2,220 Descending Miami Center
03:38PM 28.5822 -81.8133 170° South 424 488 27,500 -1,380 Descending Miami Center
03:39PM 28.4664 -81.7844 168° South 429 494 27,000 -600 Descending Miami Center
03:40PM 28.3364 -81.7458 165° South 429 494 26,300 -1,020 Descending Miami Center
03:41PM 28.2269 -81.7153 166° South 426 490 25,000 -1,320 Descending Miami Center
03:42PM 28.1153 -81.6822 165° South 420 483 23,700 -1,020 Descending Miami Center
03:43PM 28.0069 -81.6800 179° South 406 467 23,000 -360 Descending Miami Center
03:44PM 27.8958 -81.6964 187° South 393 452 23,000 -60 Level Miami Center
03:45PM 27.8025 -81.6758 169° South 393 452 22,900 -1,020 Descending Miami Center
03:46PM 27.6886 -81.6478 168° South 387 445 21,000 -1,860 Descending Miami Center
03:47PM 27.5831 -81.6222 168° South 387 445 19,200 -1,680 Descending Miami Center
03:48PM 27.4900 -81.5972 167° South 386 444 17,700 -1,680 Descending Miami Center
03:49PM 27.3928 -81.5744 168° South 386 444 15,900 -1,740 Descending Miami Center
03:50PM 27.2953 -81.5519 168° South 369 425 14,300 -1,740 Descending Miami Center
03:51PM 27.2000 -81.5292 168° South 359 413 12,500 -1,620 Descending Miami Center
03:52PM 27.1067 -81.5069 168° South 353 406 11,100 -1,260 Descending Miami Center
03:53PM 27.0200 -81.4825 166° South 342 394 10,000 -660 Descending Miami Center
03:54PM 26.9394 -81.4489 160° South 313 360 9,800 -1,080 Descending Miami Center
03:55PM 26.8719 -81.4114 154° Southeast 288 331 7,900 -1,860 Descending Miami Center
03:56PM 26.8036 -81.3856 161° South 272 313 6,100 -1,500 Descending Miami Center
03:57PM 26.7347 -81.3922 185° South 253 291 5,000 -600 Descending Miami Center
03:58PM 26.6675 -81.3989 185° South 253 291 5,000  Level Miami Center
03:59PM 26.6217 -81.4644 232° Southwest 234 269 5,000  Level Miami Center
04:00PM 26.5800 -81.5278 234° Southwest 249 287 5,000  Level Miami Center
04:02PM 26.5515 -81.6758 197° South  Level Estimated
04:09PM 26.5333 -81.7500 318° Northwest  Level FlightAware Approximate
04:10PM 26.5362 -81.7552 318° Northwest  Level Estimated
04:11PM 26.5333 -81.7500 318° Northwest  Level FlightAware Approximate
04:12PM 26.5362 -81.7552 318° Northwest  Level Estimated
04:13PM 26.5333 -81.7500 318° Northwest  Level FlightAware Approximate
04:14PM 26.5362 -81.7552 318° Northwest  Level Estimated
04:15PM 26.5333 -81.7500 318° Northwest  Level FlightAware Approximate
04:16PM 26.5362 -81.7552 318° Northwest  Level Estimated
04:17PM 26.5333 -81.7500 318° Northwest  Level FlightAware Approximate
04:18PM 26.5362 -81.7552 318° Northwest  Level Estimated
04:19PM 26.5333 -81.7500 318° Northwest  Level FlightAware Approximate
04:20PM 26.5362 -81.7552 318° Northwest  Level Estimated